sensor_id;sensor_type;location;lat;lon;timestamp;P1;P2;P0
45440;PMS5003;31189;38.790;-77.084;2024-02-26T00:01:31;10;6;
45440;PMS5003;31189;38.790;-77.084;2024-02-26T00:03:54;11;8;
45440;PMS5003;31189;38.790;-77.084;2024-02-26T00:06:20;9;9;
45440;PMS5003;31189;38.790;-77.084;2024-02-26T00:08:46;10;8;
45440;PMS5003;31189;38.790;-77.084;2024-02-26T00:11:12;8;7;
45440;PMS5003;31189;38.790;-77.084;2024-02-26T00:13:37;9;8;
45440;PMS5003;31189;38.790;-77.084;2024-02-26T00:16:03;7;7;
45440;PMS5003;31189;38.790;-77.084;2024-02-26T00:18:28;7;7;
45440;PMS5003;31189;38.790;-77.084;2024-02-26T00:20:54;7;7;
45440;PMS5003;31189;38.790;-77.084;2024-02-26T00:23:20;9;8;
45440;PMS5003;31189;38.790;-77.084;2024-02-26T00:25:46;10;7;
45440;PMS5003;31189;38.790;-77.084;2024-02-26T00:28:11;8;7;
45440;PMS5003;31189;38.790;-77.084;2024-02-26T00:30:37;7;7;
45440;PMS5003;31189;38.790;-77.084;2024-02-26T00:33:03;11;10;
45440;PMS5003;31189;38.790;-77.084;2024-02-26T00:35:28;8;8;
45440;PMS5003;31189;38.790;-77.084;2024-02-26T00:37:54;11;7;
45440;PMS5003;31189;38.790;-77.084;2024-02-26T00:40:19;9;6;
45440;PMS5003;31189;38.790;-77.084;2024-02-26T00:42:45;8;7;
45440;PMS5003;31189;38.790;-77.084;2024-02-26T00:45:11;9;7;
45440;PMS5003;31189;38.790;-77.084;2024-02-26T00:47:38;11;11;
45440;PMS5003;31189;38.790;-77.084;2024-02-26T00:50:02;9;8;
45440;PMS5003;31189;38.790;-77.084;2024-02-26T00:52:28;14;8;
45440;PMS5003;31189;38.790;-77.084;2024-02-26T00:54:54;8;8;
45440;PMS5003;31189;38.790;-77.084;2024-02-26T00:57:19;6;5;
45440;PMS5003;31189;38.790;-77.084;2024-02-26T00:59:45;6;6;
45440;PMS5003;31189;38.790;-77.084;2024-02-26T01:02:11;6;5;
45440;PMS5003;31189;38.790;-77.084;2024-02-26T01:04:36;7;5;
45440;PMS5003;31189;38.790;-77.084;2024-02-26T01:07:02;7;6;
45440;PMS5003;31189;38.790;-77.084;2024-02-26T01:09:28;5;5;
45440;PMS5003;31189;38.790;-77.084;2024-02-26T01:11:54;6;5;
45440;PMS5003;31189;38.790;-77.084;2024-02-26T01:14:19;8;5;
45440;PMS5003;31189;38.790;-77.084;2024-02-26T01:16:45;8;7;
45440;PMS5003;31189;38.790;-77.084;2024-02-26T01:19:10;6;5;
45440;PMS5003;31189;38.790;-77.084;2024-02-26T01:21:36;7;6;
45440;PMS5003;31189;38.790;-77.084;2024-02-26T01:24:02;5;5;
45440;PMS5003;31189;38.790;-77.084;2024-02-26T01:26:27;7;5;
45440;PMS5003;31189;38.790;-77.084;2024-02-26T01:28:53;6;5;
45440;PMS5003;31189;38.790;-77.084;2024-02-26T01:31:19;8;5;
45440;PMS5003;31189;38.790;-77.084;2024-02-26T01:33:44;5;5;
45440;PMS5003;31189;38.790;-77.084;2024-02-26T01:36:10;7;4;
45440;PMS5003;31189;38.790;-77.084;2024-02-26T01:38:36;8;4;
45440;PMS5003;31189;38.790;-77.084;2024-02-26T01:41:01;8;6;
45440;PMS5003;31189;38.790;-77.084;2024-02-26T01:43:27;8;6;
45440;PMS5003;31189;38.790;-77.084;2024-02-26T01:45:53;7;7;
45440;PMS5003;31189;38.790;-77.084;2024-02-26T01:48:19;5;5;
45440;PMS5003;31189;38.790;-77.084;2024-02-26T01:50:44;10;7;
45440;PMS5003;31189;38.790;-77.084;2024-02-26T01:53:10;7;5;
45440;PMS5003;31189;38.790;-77.084;2024-02-26T01:55:36;8;7;
45440;PMS5003;31189;38.790;-77.084;2024-02-26T01:58:01;8;6;
45440;PMS5003;31189;38.790;-77.084;2024-02-26T02:00:27;6;6;
45440;PMS5003;31189;38.790;-77.084;2024-02-26T02:02:53;6;6;
45440;PMS5003;31189;38.790;-77.084;2024-02-26T02:05:18;9;7;
45440;PMS5003;31189;38.790;-77.084;2024-02-26T02:07:44;7;5;
45440;PMS5003;31189;38.790;-77.084;2024-02-26T02:10:10;7;5;
45440;PMS5003;31189;38.790;-77.084;2024-02-26T02:12:35;5;5;
45440;PMS5003;31189;38.790;-77.084;2024-02-26T02:15:01;5;4;
45440;PMS5003;31189;38.790;-77.084;2024-02-26T02:17:27;8;6;
45440;PMS5003;31189;38.790;-77.084;2024-02-26T02:19:52;5;5;
45440;PMS5003;31189;38.790;-77.084;2024-02-26T02:22:18;8;6;
45440;PMS5003;31189;38.790;-77.084;2024-02-26T02:24:44;4;4;
45440;PMS5003;31189;38.790;-77.084;2024-02-26T02:27:09;6;4;
45440;PMS5003;31189;38.790;-77.084;2024-02-26T02:29:35;9;5;
45440;PMS5003;31189;38.790;-77.084;2024-02-26T02:32:01;7;6;
45440;PMS5003;31189;38.790;-77.084;2024-02-26T02:34:26;7;5;
45440;PMS5003;31189;38.790;-77.084;2024-02-26T02:36:52;5;5;
45440;PMS5003;31189;38.790;-77.084;2024-02-26T02:39:18;6;5;
45440;PMS5003;31189;38.790;-77.084;2024-02-26T02:41:43;7;4;
45440;PMS5003;31189;38.790;-77.084;2024-02-26T02:44:09;8;4;
45440;PMS5003;31189;38.790;-77.084;2024-02-26T02:46:35;4;4;
45440;PMS5003;31189;38.790;-77.084;2024-02-26T02:49:00;4;4;
45440;PMS5003;31189;38.790;-77.084;2024-02-26T02:51:26;5;4;
45440;PMS5003;31189;38.790;-77.084;2024-02-26T02:53:52;4;4;
45440;PMS5003;31189;38.790;-77.084;2024-02-26T02:56:17;4;3;
45440;PMS5003;31189;38.790;-77.084;2024-02-26T02:58:43;5;4;
45440;PMS5003;31189;38.790;-77.084;2024-02-26T03:01:09;6;4;
45440;PMS5003;31189;38.790;-77.084;2024-02-26T03:03:34;4;4;
45440;PMS5003;31189;38.790;-77.084;2024-02-26T03:06:00;4;3;
45440;PMS5003;31189;38.790;-77.084;2024-02-26T03:08:26;5;3;
45440;PMS5003;31189;38.790;-77.084;2024-02-26T03:10:51;6;6;
45440;PMS5003;31189;38.790;-77.084;2024-02-26T03:13:17;4;4;
45440;PMS5003;31189;38.790;-77.084;2024-02-26T03:15:43;5;3;
45440;PMS5003;31189;38.790;-77.084;2024-02-26T03:18:09;4;4;
45440;PMS5003;31189;38.790;-77.084;2024-02-26T03:20:34;4;4;
45440;PMS5003;31189;38.790;-77.084;2024-02-26T03:23:00;7;6;
45440;PMS5003;31189;38.790;-77.084;2024-02-26T03:25:26;7;5;
45440;PMS5003;31189;38.790;-77.084;2024-02-26T03:27:51;6;4;
45440;PMS5003;31189;38.790;-77.084;2024-02-26T03:30:17;6;5;
45440;PMS5003;31189;38.790;-77.084;2024-02-26T03:32:43;4;4;
45440;PMS5003;31189;38.790;-77.084;2024-02-26T03:35:09;2;2;
45440;PMS5003;31189;38.790;-77.084;2024-02-26T03:37:34;16;6;
45440;PMS5003;31189;38.790;-77.084;2024-02-26T03:39:59;5;5;
45440;PMS5003;31189;38.790;-77.084;2024-02-26T03:42:25;5;4;
45440;PMS5003;31189;38.790;-77.084;2024-02-26T03:44:51;7;4;
45440;PMS5003;31189;38.790;-77.084;2024-02-26T03:47:17;5;4;
45440;PMS5003;31189;38.790;-77.084;2024-02-26T03:49:42;5;5;
45440;PMS5003;31189;38.790;-77.084;2024-02-26T03:52:08;3;3;
45440;PMS5003;31189;38.790;-77.084;2024-02-26T03:54:33;5;4;
45440;PMS5003;31189;38.790;-77.084;2024-02-26T03:56:59;3;3;
45440;PMS5003;31189;38.790;-77.084;2024-02-26T03:59:25;4;4;
45440;PMS5003;31189;38.790;-77.084;2024-02-26T04:01:51;4;4;
45440;PMS5003;31189;38.790;-77.084;2024-02-26T04:04:16;6;4;
45440;PMS5003;31189;38.790;-77.084;2024-02-26T04:06:44;5;5;
45440;PMS5003;31189;38.790;-77.084;2024-02-26T04:09:08;3;3;
45440;PMS5003;31189;38.790;-77.084;2024-02-26T04:11:34;3;2;
45440;PMS5003;31189;38.790;-77.084;2024-02-26T04:13:59;5;3;
45440;PMS5003;31189;38.790;-77.084;2024-02-26T04:16:25;3;3;
45440;PMS5003;31189;38.790;-77.084;2024-02-26T04:18:50;7;3;
45440;PMS5003;31189;38.790;-77.084;2024-02-26T04:21:16;2;2;
45440;PMS5003;31189;38.790;-77.084;2024-02-26T04:23:42;5;4;
45440;PMS5003;31189;38.790;-77.084;2024-02-26T04:26:08;4;4;
45440;PMS5003;31189;38.790;-77.084;2024-02-26T04:28:33;7;6;
45440;PMS5003;31189;38.790;-77.084;2024-02-26T04:30:59;4;3;
45440;PMS5003;31189;38.790;-77.084;2024-02-26T04:33:25;8;5;
45440;PMS5003;31189;38.790;-77.084;2024-02-26T04:35:50;5;4;
45440;PMS5003;31189;38.790;-77.084;2024-02-26T04:38:16;6;4;
45440;PMS5003;31189;38.790;-77.084;2024-02-26T04:40:42;5;5;
45440;PMS5003;31189;38.790;-77.084;2024-02-26T04:43:07;5;5;
45440;PMS5003;31189;38.790;-77.084;2024-02-26T04:45:33;4;4;
45440;PMS5003;31189;38.790;-77.084;2024-02-26T04:47:59;5;5;
45440;PMS5003;31189;38.790;-77.084;2024-02-26T04:50:25;7;5;
45440;PMS5003;31189;38.790;-77.084;2024-02-26T04:52:50;4;4;
45440;PMS5003;31189;38.790;-77.084;2024-02-26T04:55:16;4;4;
45440;PMS5003;31189;38.790;-77.084;2024-02-26T04:57:42;3;3;
45440;PMS5003;31189;38.790;-77.084;2024-02-26T05:00:08;3;3;
45440;PMS5003;31189;38.790;-77.084;2024-02-26T05:02:33;10;5;
45440;PMS5003;31189;38.790;-77.084;2024-02-26T05:04:59;3;3;
45440;PMS5003;31189;38.790;-77.084;2024-02-26T05:07:25;5;5;
45440;PMS5003;31189;38.790;-77.084;2024-02-26T05:09:50;8;4;
45440;PMS5003;31189;38.790;-77.084;2024-02-26T05:12:16;6;5;
45440;PMS5003;31189;38.790;-77.084;2024-02-26T05:14:42;4;4;
45440;PMS5003;31189;38.790;-77.084;2024-02-26T05:17:08;5;5;
45440;PMS5003;31189;38.790;-77.084;2024-02-26T05:19:33;7;5;
45440;PMS5003;31189;38.790;-77.084;2024-02-26T05:21:59;4;3;
45440;PMS5003;31189;38.790;-77.084;2024-02-26T05:24:25;12;6;
45440;PMS5003;31189;38.790;-77.084;2024-02-26T05:26:50;5;5;
45440;PMS5003;31189;38.790;-77.084;2024-02-26T05:29:16;6;3;
45440;PMS5003;31189;38.790;-77.084;2024-02-26T05:31:42;5;5;
45440;PMS5003;31189;38.790;-77.084;2024-02-26T05:34:07;15;6;
45440;PMS5003;31189;38.790;-77.084;2024-02-26T05:36:33;6;5;
45440;PMS5003;31189;38.790;-77.084;2024-02-26T05:38:58;11;7;
45440;PMS5003;31189;38.790;-77.084;2024-02-26T05:41:24;4;4;
45440;PMS5003;31189;38.790;-77.084;2024-02-26T05:43:50;5;5;
45440;PMS5003;31189;38.790;-77.084;2024-02-26T05:46:16;5;5;
45440;PMS5003;31189;38.790;-77.084;2024-02-26T05:48:41;7;6;
45440;PMS5003;31189;38.790;-77.084;2024-02-26T05:51:07;5;5;
45440;PMS5003;31189;38.790;-77.084;2024-02-26T05:53:32;6;3;
45440;PMS5003;31189;38.790;-77.084;2024-02-26T05:55:58;5;4;
45440;PMS5003;31189;38.790;-77.084;2024-02-26T05:58:24;8;7;
45440;PMS5003;31189;38.790;-77.084;2024-02-26T06:00:50;7;5;
45440;PMS5003;31189;38.790;-77.084;2024-02-26T06:03:15;6;6;
45440;PMS5003;31189;38.790;-77.084;2024-02-26T06:05:41;5;5;
45440;PMS5003;31189;38.790;-77.084;2024-02-26T06:08:07;6;5;
45440;PMS5003;31189;38.790;-77.084;2024-02-26T06:10:32;5;5;
45440;PMS5003;31189;38.790;-77.084;2024-02-26T06:12:58;5;5;
45440;PMS5003;31189;38.790;-77.084;2024-02-26T06:15:24;4;4;
45440;PMS5003;31189;38.790;-77.084;2024-02-26T06:17:50;5;4;
45440;PMS5003;31189;38.790;-77.084;2024-02-26T06:20:15;6;5;
45440;PMS5003;31189;38.790;-77.084;2024-02-26T06:22:41;7;5;
45440;PMS5003;31189;38.790;-77.084;2024-02-26T06:25:07;6;5;
45440;PMS5003;31189;38.790;-77.084;2024-02-26T06:27:32;8;6;
45440;PMS5003;31189;38.790;-77.084;2024-02-26T06:29:58;5;5;
45440;PMS5003;31189;38.790;-77.084;2024-02-26T06:32:24;4;4;
45440;PMS5003;31189;38.790;-77.084;2024-02-26T06:34:50;7;7;
45440;PMS5003;31189;38.790;-77.084;2024-02-26T06:37:15;7;5;
45440;PMS5003;31189;38.790;-77.084;2024-02-26T06:39:41;9;7;
45440;PMS5003;31189;38.790;-77.084;2024-02-26T06:42:07;10;7;
45440;PMS5003;31189;38.790;-77.084;2024-02-26T06:44:32;6;5;
45440;PMS5003;31189;38.790;-77.084;2024-02-26T06:46:58;8;6;
45440;PMS5003;31189;38.790;-77.084;2024-02-26T06:49:24;8;7;
45440;PMS5003;31189;38.790;-77.084;2024-02-26T06:51:49;4;4;
45440;PMS5003;31189;38.790;-77.084;2024-02-26T06:54:15;7;5;
45440;PMS5003;31189;38.790;-77.084;2024-02-26T06:56:46;9;6;
45440;PMS5003;31189;38.790;-77.084;2024-02-26T06:59:07;6;5;
45440;PMS5003;31189;38.790;-77.084;2024-02-26T07:01:32;5;5;
45440;PMS5003;31189;38.790;-77.084;2024-02-26T07:03:58;7;5;
45440;PMS5003;31189;38.790;-77.084;2024-02-26T07:06:24;7;7;
45440;PMS5003;31189;38.790;-77.084;2024-02-26T07:08:50;6;5;
45440;PMS5003;31189;38.790;-77.084;2024-02-26T07:11:15;7;6;
45440;PMS5003;31189;38.790;-77.084;2024-02-26T07:13:41;8;4;
45440;PMS5003;31189;38.790;-77.084;2024-02-26T07:16:09;8;7;
45440;PMS5003;31189;38.790;-77.084;2024-02-26T07:18:32;6;6;
45440;PMS5003;31189;38.790;-77.084;2024-02-26T07:20:58;7;6;
45440;PMS5003;31189;38.790;-77.084;2024-02-26T07:23:24;9;7;
45440;PMS5003;31189;38.790;-77.084;2024-02-26T07:25:49;9;6;
45440;PMS5003;31189;38.790;-77.084;2024-02-26T07:28:15;7;7;
45440;PMS5003;31189;38.790;-77.084;2024-02-26T07:30:41;7;6;
45440;PMS5003;31189;38.790;-77.084;2024-02-26T07:33:06;5;5;
45440;PMS5003;31189;38.790;-77.084;2024-02-26T07:35:32;5;5;
45440;PMS5003;31189;38.790;-77.084;2024-02-26T07:37:58;5;5;
45440;PMS5003;31189;38.790;-77.084;2024-02-26T07:40:24;6;5;
45440;PMS5003;31189;38.790;-77.084;2024-02-26T07:42:49;6;5;
45440;PMS5003;31189;38.790;-77.084;2024-02-26T07:45:15;8;5;
45440;PMS5003;31189;38.790;-77.084;2024-02-26T07:47:41;7;5;
45440;PMS5003;31189;38.790;-77.084;2024-02-26T07:50:07;6;6;
45440;PMS5003;31189;38.790;-77.084;2024-02-26T07:52:32;7;6;
45440;PMS5003;31189;38.790;-77.084;2024-02-26T07:54:58;8;7;
45440;PMS5003;31189;38.790;-77.084;2024-02-26T07:57:23;6;6;
45440;PMS5003;31189;38.790;-77.084;2024-02-26T07:59:49;6;5;
45440;PMS5003;31189;38.790;-77.084;2024-02-26T08:02:15;7;6;
45440;PMS5003;31189;38.790;-77.084;2024-02-26T08:04:40;8;6;
45440;PMS5003;31189;38.790;-77.084;2024-02-26T08:07:06;8;6;
45440;PMS5003;31189;38.790;-77.084;2024-02-26T08:09:32;8;5;
45440;PMS5003;31189;38.790;-77.084;2024-02-26T08:11:58;5;5;
45440;PMS5003;31189;38.790;-77.084;2024-02-26T08:14:24;9;7;
45440;PMS5003;31189;38.790;-77.084;2024-02-26T08:16:49;6;5;
45440;PMS5003;31189;38.790;-77.084;2024-02-26T08:19:15;8;6;
45440;PMS5003;31189;38.790;-77.084;2024-02-26T08:21:40;7;6;
45440;PMS5003;31189;38.790;-77.084;2024-02-26T08:24:06;6;6;
45440;PMS5003;31189;38.790;-77.084;2024-02-26T08:26:32;9;8;
45440;PMS5003;31189;38.790;-77.084;2024-02-26T08:28:57;7;7;
45440;PMS5003;31189;38.790;-77.084;2024-02-26T08:31:23;6;6;
45440;PMS5003;31189;38.790;-77.084;2024-02-26T08:33:49;10;7;
45440;PMS5003;31189;38.790;-77.084;2024-02-26T08:36:15;8;6;
45440;PMS5003;31189;38.790;-77.084;2024-02-26T08:38:40;7;6;
45440;PMS5003;31189;38.790;-77.084;2024-02-26T08:41:06;10;6;
45440;PMS5003;31189;38.790;-77.084;2024-02-26T08:43:32;6;6;
45440;PMS5003;31189;38.790;-77.084;2024-02-26T08:45:57;16;5;
45440;PMS5003;31189;38.790;-77.084;2024-02-26T08:48:23;7;5;
45440;PMS5003;31189;38.790;-77.084;2024-02-26T08:50:48;8;7;
45440;PMS5003;31189;38.790;-77.084;2024-02-26T08:53:14;7;7;
45440;PMS5003;31189;38.790;-77.084;2024-02-26T08:55:40;9;8;
45440;PMS5003;31189;38.790;-77.084;2024-02-26T08:58:05;10;8;
45440;PMS5003;31189;38.790;-77.084;2024-02-26T09:00:31;7;6;
45440;PMS5003;31189;38.790;-77.084;2024-02-26T09:02:56;8;7;
45440;PMS5003;31189;38.790;-77.084;2024-02-26T09:05:22;10;7;
45440;PMS5003;31189;38.790;-77.084;2024-02-26T09:07:48;7;7;
45440;PMS5003;31189;38.790;-77.084;2024-02-26T09:10:13;8;7;
45440;PMS5003;31189;38.790;-77.084;2024-02-26T09:12:39;5;5;
45440;PMS5003;31189;38.790;-77.084;2024-02-26T09:15:06;7;6;
45440;PMS5003;31189;38.790;-77.084;2024-02-26T09:17:31;7;4;
45440;PMS5003;31189;38.790;-77.084;2024-02-26T09:19:56;10;6;
45440;PMS5003;31189;38.790;-77.084;2024-02-26T09:22:22;7;7;
45440;PMS5003;31189;38.790;-77.084;2024-02-26T09:24:48;5;5;
45440;PMS5003;31189;38.790;-77.084;2024-02-26T09:27:13;10;7;
45440;PMS5003;31189;38.790;-77.084;2024-02-26T09:29:39;10;6;
45440;PMS5003;31189;38.790;-77.084;2024-02-26T09:32:05;6;4;
45440;PMS5003;31189;38.790;-77.084;2024-02-26T09:34:30;7;7;
45440;PMS5003;31189;38.790;-77.084;2024-02-26T09:36:56;5;5;
45440;PMS5003;31189;38.790;-77.084;2024-02-26T09:39:22;7;5;
45440;PMS5003;31189;38.790;-77.084;2024-02-26T09:41:48;8;7;
45440;PMS5003;31189;38.790;-77.084;2024-02-26T09:44:13;6;6;
45440;PMS5003;31189;38.790;-77.084;2024-02-26T09:46:39;5;5;
45440;PMS5003;31189;38.790;-77.084;2024-02-26T09:49:04;4;4;
45440;PMS5003;31189;38.790;-77.084;2024-02-26T09:51:30;8;7;
45440;PMS5003;31189;38.790;-77.084;2024-02-26T09:53:56;7;7;
45440;PMS5003;31189;38.790;-77.084;2024-02-26T09:56:21;7;6;
45440;PMS5003;31189;38.790;-77.084;2024-02-26T09:58:47;6;6;
45440;PMS5003;31189;38.790;-77.084;2024-02-26T10:01:13;9;8;
45440;PMS5003;31189;38.790;-77.084;2024-02-26T10:03:39;11;6;
45440;PMS5003;31189;38.790;-77.084;2024-02-26T10:06:04;7;6;
45440;PMS5003;31189;38.790;-77.084;2024-02-26T10:08:30;9;8;
45440;PMS5003;31189;38.790;-77.084;2024-02-26T10:10:55;10;8;
45440;PMS5003;31189;38.790;-77.084;2024-02-26T10:13:21;8;6;
45440;PMS5003;31189;38.790;-77.084;2024-02-26T10:15:47;7;5;
45440;PMS5003;31189;38.790;-77.084;2024-02-26T10:18:12;4;4;
45440;PMS5003;31189;38.790;-77.084;2024-02-26T10:20:38;8;6;
45440;PMS5003;31189;38.790;-77.084;2024-02-26T10:23:04;6;6;
45440;PMS5003;31189;38.790;-77.084;2024-02-26T10:25:30;9;7;
45440;PMS5003;31189;38.790;-77.084;2024-02-26T10:27:55;5;5;
45440;PMS5003;31189;38.790;-77.084;2024-02-26T10:30:21;6;6;
45440;PMS5003;31189;38.790;-77.084;2024-02-26T10:32:47;9;7;
45440;PMS5003;31189;38.790;-77.084;2024-02-26T10:35:12;7;6;
45440;PMS5003;31189;38.790;-77.084;2024-02-26T10:37:38;6;6;
45440;PMS5003;31189;38.790;-77.084;2024-02-26T10:40:04;7;7;
45440;PMS5003;31189;38.790;-77.084;2024-02-26T10:42:30;6;5;
45440;PMS5003;31189;38.790;-77.084;2024-02-26T10:44:55;7;5;
45440;PMS5003;31189;38.790;-77.084;2024-02-26T10:47:21;14;8;
45440;PMS5003;31189;38.790;-77.084;2024-02-26T10:49:46;7;7;
45440;PMS5003;31189;38.790;-77.084;2024-02-26T10:52:12;7;7;
45440;PMS5003;31189;38.790;-77.084;2024-02-26T10:54:37;5;5;
45440;PMS5003;31189;38.790;-77.084;2024-02-26T10:57:03;10;9;
45440;PMS5003;31189;38.790;-77.084;2024-02-26T10:59:28;10;9;
45440;PMS5003;31189;38.790;-77.084;2024-02-26T11:01:54;7;6;
45440;PMS5003;31189;38.790;-77.084;2024-02-26T11:04:20;6;6;
45440;PMS5003;31189;38.790;-77.084;2024-02-26T11:06:45;8;7;
45440;PMS5003;31189;38.790;-77.084;2024-02-26T11:09:12;7;6;
45440;PMS5003;31189;38.790;-77.084;2024-02-26T11:11:37;6;6;
45440;PMS5003;31189;38.790;-77.084;2024-02-26T11:14:03;5;5;
45440;PMS5003;31189;38.790;-77.084;2024-02-26T11:16:28;6;6;
45440;PMS5003;31189;38.790;-77.084;2024-02-26T11:18:54;10;8;
45440;PMS5003;31189;38.790;-77.084;2024-02-26T11:21:20;7;7;
45440;PMS5003;31189;38.790;-77.084;2024-02-26T11:23:45;9;8;
45440;PMS5003;31189;38.790;-77.084;2024-02-26T11:26:11;5;5;
45440;PMS5003;31189;38.790;-77.084;2024-02-26T11:28:37;9;6;
45440;PMS5003;31189;38.790;-77.084;2024-02-26T11:31:03;7;7;
45440;PMS5003;31189;38.790;-77.084;2024-02-26T11:33:28;9;6;
45440;PMS5003;31189;38.790;-77.084;2024-02-26T11:35:54;7;7;
45440;PMS5003;31189;38.790;-77.084;2024-02-26T11:38:20;6;6;
45440;PMS5003;31189;38.790;-77.084;2024-02-26T11:40:45;9;8;
45440;PMS5003;31189;38.790;-77.084;2024-02-26T11:43:11;9;6;
45440;PMS5003;31189;38.790;-77.084;2024-02-26T11:48:02;6;5;
45440;PMS5003;31189;38.790;-77.084;2024-02-26T11:50:34;8;7;
45440;PMS5003;31189;38.790;-77.084;2024-02-26T11:55:21;7;7;
45440;PMS5003;31189;38.790;-77.084;2024-02-26T11:57:45;11;9;
45440;PMS5003;31189;38.790;-77.084;2024-02-26T12:00:11;9;9;
45440;PMS5003;31189;38.790;-77.084;2024-02-26T12:02:38;7;7;
45440;PMS5003;31189;38.790;-77.084;2024-02-26T12:05:01;10;10;
45440;PMS5003;31189;38.790;-77.084;2024-02-26T12:07:27;7;7;
45440;PMS5003;31189;38.790;-77.084;2024-02-26T12:09:53;6;6;
45440;PMS5003;31189;38.790;-77.084;2024-02-26T12:12:18;11;10;
45440;PMS5003;31189;38.790;-77.084;2024-02-26T12:19:35;6;6;
45440;PMS5003;31189;38.790;-77.084;2024-02-26T12:22:01;10;9;
45440;PMS5003;31189;38.790;-77.084;2024-02-26T12:24:27;7;6;
45440;PMS5003;31189;38.790;-77.084;2024-02-26T12:26:53;7;7;
45440;PMS5003;31189;38.790;-77.084;2024-02-26T12:29:18;8;8;
45440;PMS5003;31189;38.790;-77.084;2024-02-26T12:31:44;13;9;
45440;PMS5003;31189;38.790;-77.084;2024-02-26T12:34:10;15;10;
45440;PMS5003;31189;38.790;-77.084;2024-02-26T12:36:36;12;11;
45440;PMS5003;31189;38.790;-77.084;2024-02-26T12:39:01;11;10;
45440;PMS5003;31189;38.790;-77.084;2024-02-26T12:41:27;13;12;
45440;PMS5003;31189;38.790;-77.084;2024-02-26T12:43:53;12;10;
45440;PMS5003;31189;38.790;-77.084;2024-02-26T12:46:18;14;11;
45440;PMS5003;31189;38.790;-77.084;2024-02-26T12:48:44;13;12;
45440;PMS5003;31189;38.790;-77.084;2024-02-26T12:51:10;13;13;
45440;PMS5003;31189;38.790;-77.084;2024-02-26T12:53:35;14;14;
45440;PMS5003;31189;38.790;-77.084;2024-02-26T12:56:01;16;14;
45440;PMS5003;31189;38.790;-77.084;2024-02-26T12:58:27;10;10;
45440;PMS5003;31189;38.790;-77.084;2024-02-26T13:00:52;12;10;
45440;PMS5003;31189;38.790;-77.084;2024-02-26T13:03:18;11;9;
45440;PMS5003;31189;38.790;-77.084;2024-02-26T13:05:44;11;9;
45440;PMS5003;31189;38.790;-77.084;2024-02-26T13:08:09;12;11;
45440;PMS5003;31189;38.790;-77.084;2024-02-26T13:10:35;9;9;
45440;PMS5003;31189;38.790;-77.084;2024-02-26T13:13:01;10;8;
45440;PMS5003;31189;38.790;-77.084;2024-02-26T13:15:26;12;10;
45440;PMS5003;31189;38.790;-77.084;2024-02-26T13:17:51;9;9;
45440;PMS5003;31189;38.790;-77.084;2024-02-26T13:22:43;8;8;
45440;PMS5003;31189;38.790;-77.084;2024-02-26T13:25:08;9;8;
45440;PMS5003;31189;38.790;-77.084;2024-02-26T13:27:34;10;8;
45440;PMS5003;31189;38.790;-77.084;2024-02-26T13:30:04;8;8;
45440;PMS5003;31189;38.790;-77.084;2024-02-26T13:32:25;17;7;
45440;PMS5003;31189;38.790;-77.084;2024-02-26T13:34:51;8;8;
45440;PMS5003;31189;38.790;-77.084;2024-02-26T13:37:16;8;8;
45440;PMS5003;31189;38.790;-77.084;2024-02-26T13:39:42;8;8;
45440;PMS5003;31189;38.790;-77.084;2024-02-26T13:42:08;7;7;
45440;PMS5003;31189;38.790;-77.084;2024-02-26T13:44:34;10;8;
45440;PMS5003;31189;38.790;-77.084;2024-02-26T13:46:59;8;6;
45440;PMS5003;31189;38.790;-77.084;2024-02-26T13:49:25;9;7;
45440;PMS5003;31189;38.790;-77.084;2024-02-26T13:51:50;8;7;
45440;PMS5003;31189;38.790;-77.084;2024-02-26T13:54:16;8;8;
45440;PMS5003;31189;38.790;-77.084;2024-02-26T13:56:42;10;7;
45440;PMS5003;31189;38.790;-77.084;2024-02-26T13:59:08;8;7;
45440;PMS5003;31189;38.790;-77.084;2024-02-26T14:01:33;20;8;
45440;PMS5003;31189;38.790;-77.084;2024-02-26T14:03:59;7;7;
45440;PMS5003;31189;38.790;-77.084;2024-02-26T14:06:24;8;8;
45440;PMS5003;31189;38.790;-77.084;2024-02-26T14:08:50;7;7;
45440;PMS5003;31189;38.790;-77.084;2024-02-26T14:11:16;6;6;
45440;PMS5003;31189;38.790;-77.084;2024-02-26T14:13:41;8;7;
45440;PMS5003;31189;38.790;-77.084;2024-02-26T14:16:07;7;6;
45440;PMS5003;31189;38.790;-77.084;2024-02-26T14:18:32;7;7;
45440;PMS5003;31189;38.790;-77.084;2024-02-26T14:20:58;8;8;
45440;PMS5003;31189;38.790;-77.084;2024-02-26T14:23:24;10;9;
45440;PMS5003;31189;38.790;-77.084;2024-02-26T14:25:49;8;7;
45440;PMS5003;31189;38.790;-77.084;2024-02-26T14:28:15;5;5;
45440;PMS5003;31189;38.790;-77.084;2024-02-26T14:30:41;10;8;
45440;PMS5003;31189;38.790;-77.084;2024-02-26T14:33:06;6;6;
45440;PMS5003;31189;38.790;-77.084;2024-02-26T14:35:32;8;8;
45440;PMS5003;31189;38.790;-77.084;2024-02-26T14:37:57;8;7;
45440;PMS5003;31189;38.790;-77.084;2024-02-26T14:40:23;8;7;
45440;PMS5003;31189;38.790;-77.084;2024-02-26T14:42:49;8;6;
45440;PMS5003;31189;38.790;-77.084;2024-02-26T14:45:14;8;6;
45440;PMS5003;31189;38.790;-77.084;2024-02-26T14:47:40;8;8;
45440;PMS5003;31189;38.790;-77.084;2024-02-26T14:50:06;7;7;
45440;PMS5003;31189;38.790;-77.084;2024-02-26T14:52:31;10;8;
45440;PMS5003;31189;38.790;-77.084;2024-02-26T14:54:57;8;7;
45440;PMS5003;31189;38.790;-77.084;2024-02-26T14:57:23;9;8;
45440;PMS5003;31189;38.790;-77.084;2024-02-26T14:59:48;11;9;
45440;PMS5003;31189;38.790;-77.084;2024-02-26T15:02:14;10;9;
45440;PMS5003;31189;38.790;-77.084;2024-02-26T15:04:39;8;8;
45440;PMS5003;31189;38.790;-77.084;2024-02-26T15:07:05;8;6;
45440;PMS5003;31189;38.790;-77.084;2024-02-26T15:09:31;9;7;
45440;PMS5003;31189;38.790;-77.084;2024-02-26T15:11:56;10;9;
45440;PMS5003;31189;38.790;-77.084;2024-02-26T15:14:22;8;8;
45440;PMS5003;31189;38.790;-77.084;2024-02-26T15:16:47;11;8;
45440;PMS5003;31189;38.790;-77.084;2024-02-26T15:19:13;6;6;
45440;PMS5003;31189;38.790;-77.084;2024-02-26T15:21:42;9;8;
45440;PMS5003;31189;38.790;-77.084;2024-02-26T15:24:05;7;7;
45440;PMS5003;31189;38.790;-77.084;2024-02-26T15:26:30;8;8;
45440;PMS5003;31189;38.790;-77.084;2024-02-26T15:28:56;10;9;
45440;PMS5003;31189;38.790;-77.084;2024-02-26T15:31:21;9;7;
45440;PMS5003;31189;38.790;-77.084;2024-02-26T15:33:47;7;6;
45440;PMS5003;31189;38.790;-77.084;2024-02-26T15:36:13;8;8;
45440;PMS5003;31189;38.790;-77.084;2024-02-26T15:38:38;8;8;
45440;PMS5003;31189;38.790;-77.084;2024-02-26T15:43:29;7;7;
45440;PMS5003;31189;38.790;-77.084;2024-02-26T15:45:55;6;6;
45440;PMS5003;31189;38.790;-77.084;2024-02-26T15:48:21;8;8;
45440;PMS5003;31189;38.790;-77.084;2024-02-26T15:50:46;8;6;
45440;PMS5003;31189;38.790;-77.084;2024-02-26T15:53:12;9;8;
45440;PMS5003;31189;38.790;-77.084;2024-02-26T15:55:38;8;8;
45440;PMS5003;31189;38.790;-77.084;2024-02-26T15:58:03;11;8;
45440;PMS5003;31189;38.790;-77.084;2024-02-26T16:00:29;6;6;
45440;PMS5003;31189;38.790;-77.084;2024-02-26T16:02:55;10;7;
45440;PMS5003;31189;38.790;-77.084;2024-02-26T16:05:20;10;8;
45440;PMS5003;31189;38.790;-77.084;2024-02-26T16:07:47;7;6;
45440;PMS5003;31189;38.790;-77.084;2024-02-26T16:10:12;7;7;
45440;PMS5003;31189;38.790;-77.084;2024-02-26T16:12:38;6;6;
45440;PMS5003;31189;38.790;-77.084;2024-02-26T16:15:03;6;6;
45440;PMS5003;31189;38.790;-77.084;2024-02-26T16:17:29;8;6;